This is the latest recevied weather packets stored in our database for station/object IU6BJT. If no packets are shown the sender has not sent any weather packets the latest 10 day(s).
| Time | Temp. | Humidity | Pressure | Rain* | Wind** | Luminosity | Snow |
|---|---|---|---|---|---|---|---|
| 1777772431 | 8.89° C | 78% | 1019.8 hPa | 0 mm | - | - | - |
| 1777771225 | 9.44° C | 77% | 1020 hPa | 0 mm | - | - | - |
| 1777769456 | 9.44° C | 77% | 1020.2 hPa | 0 mm | - | - | - |
| 1777758624 | 11.11° C | 69% | 1021.4 hPa | 0 mm | - | - | - |
| 1777755047 | 11.67° C | 66% | 1021.5 hPa | 0 mm | - | - | - |
| 1777749039 | 13.33° C | 55% | 1021.2 hPa | 0 mm | - | - | - |
| 1777743633 | 20° C | 29% | 1021.1 hPa | 0 mm | - | - | - |
| 1777740056 | 20° C | 30% | 1021.5 hPa | 0 mm | - | - | - |
| 1777738850 | 20.56° C | 30% | 1021.5 hPa | 0 mm | - | - | - |
| 1777737646 | 20.56° C | 31% | 1021.8 hPa | 0 mm | - | - | - |
| 1777729224 | 20° C | 39% | 1023.4 hPa | 0 mm | - | - | - |
| 1777726833 | 18.89° C | 44% | 1023.8 hPa | 0 mm | - | - | - |
| 1777725024 | 19.44° C | 40% | 1024.1 hPa | 0 mm | - | - | - |
| 1777720824 | 19.44° C | 45% | 1024.7 hPa | 0 mm | - | - | - |
| 1777720221 | 18.89° C | 48% | 1024.7 hPa | 0 mm | - | - | - |
| 1777719618 | 18.89° C | 46% | 1024.9 hPa | 0 mm | - | - | - |
| 1777717226 | 18.33° C | 51% | 1025.3 hPa | 0 mm | - | - | - |
| 1777716623 | 17.78° C | 54% | 1025.5 hPa | 0 mm | - | - | - |
| 1777713629 | 18.33° C | 54% | 1025.6 hPa | 0 mm | - | - | - |
| 1777710634 | 17.22° C | 56% | 1025.6 hPa | 0 mm | - | - | - |
| 1777707017 | 16.67° C | 54% | 1025.9 hPa | 0 mm | - | - | - |
| 1777703419 | 12.22° C | 55% | 1025.9 hPa | 0 mm | - | - | - |
| 1777698053 | 7.22° C | 69% | 1025.9 hPa | 0 mm | - | - | - |
| 1777695019 | 6.67° C | 71% | 1025.7 hPa | 0 mm | - | - | - |
| 1777693833 | 5.56° C | 74% | 1025.6 hPa | 0 mm | - | - | - |
* Rain latest hour (hover to see other rain measurements)
** Current wind speed in m/s (hover to see current wind gust speed)